createdAt,value
2023-05-14T04:46:41.372Z,98275.81
2023-05-14T04:49:10.726Z,98294.50
2023-05-14T04:51:37.496Z,98241.34
2023-05-14T04:54:04.418Z,98290.75
2023-05-14T04:56:33.462Z,98263.06
2023-05-14T04:59:00.153Z,98278.56
2023-05-14T05:01:27.110Z,98206.50
2023-05-14T05:03:53.891Z,98220.84
2023-05-14T05:06:20.641Z,98185.63
2023-05-14T05:08:47.366Z,98283.31
2023-05-14T05:11:14.048Z,98205.84
2023-05-14T05:13:43.788Z,98210.44
2023-05-14T05:16:10.511Z,98257.41
2023-05-14T05:18:37.764Z,98179.88
2023-05-14T05:21:07.041Z,98181.84
2023-05-14T05:23:33.748Z,98225.84
2023-05-14T05:26:00.459Z,98269.13
2023-05-14T05:28:27.257Z,98246.56
2023-05-14T05:30:53.993Z,98276.47
2023-05-14T05:33:20.902Z,98270.16
2023-05-14T05:35:48.342Z,98247.59
2023-05-14T05:38:15.675Z,98237.22
2023-05-14T05:40:42.439Z,98235.28
2023-05-14T05:43:09.081Z,98244.72
2023-05-14T05:45:35.753Z,98240.44
2023-05-14T05:48:04.029Z,98262.66
2023-05-14T05:50:31.895Z,98265.94
2023-05-14T05:52:59.375Z,98248.66
2023-05-14T05:55:26.147Z,98249.97
2023-05-14T05:57:52.892Z,98259.91
2023-05-14T06:00:20.542Z,98250.03
2023-05-14T06:02:47.263Z,98268.56
2023-05-14T06:05:14.105Z,98257.81
2023-05-14T06:07:52.161Z,98218.34
2023-05-14T06:10:19.890Z,98197.31
2023-05-14T06:12:46.572Z,98258.41
2023-05-14T06:15:13.333Z,98235.31
2023-05-14T06:17:40.235Z,98213.47
2023-05-14T06:20:08.004Z,98278.28
2023-05-14T06:22:34.889Z,98279.06
2023-05-14T06:25:01.762Z,98219.19
2023-05-14T06:27:28.473Z,98196.13
2023-05-14T06:29:55.343Z,98184.75
2023-05-14T06:32:22.172Z,98202.56
2023-05-14T06:34:49.053Z,98259.91
2023-05-14T06:37:15.733Z,98263.81
2023-05-14T06:39:50.068Z,98263.06
2023-05-14T06:42:17.482Z,98259.19
2023-05-14T06:44:45.057Z,98244.22
2023-05-14T06:47:11.788Z,98264.47
2023-05-14T06:49:41.013Z,98192.69
2023-05-14T06:52:08.159Z,98257.63
2023-05-14T06:54:34.990Z,98229.00
2023-05-14T06:57:01.743Z,98226.22
2023-05-14T06:59:29.514Z,98195.00
2023-05-14T07:01:56.349Z,98161.06
2023-05-14T07:04:23.137Z,98255.25
2023-05-14T07:06:49.868Z,98136.25
2023-05-14T07:09:16.733Z,98258.44
2023-05-14T07:11:43.436Z,98242.56
2023-05-14T07:14:10.152Z,98159.75
2023-05-14T07:16:37.234Z,98249.91
2023-05-14T07:19:04.063Z,98255.19
2023-05-14T07:21:31.787Z,98238.03
2023-05-14T07:23:58.526Z,98244.34
2023-05-14T07:26:25.292Z,98241.47
2023-05-14T07:28:52.060Z,98209.31
2023-05-14T07:31:18.654Z,98232.50
2023-05-14T07:33:45.439Z,98220.78
2023-05-14T07:36:12.411Z,98182.19
2023-05-14T07:38:39.259Z,98232.38
2023-05-14T07:41:06.154Z,98187.63
2023-05-14T07:43:32.934Z,98201.72
2023-05-14T07:45:59.676Z,98177.94
2023-05-14T07:48:26.701Z,98200.34
2023-05-14T07:50:53.775Z,98227.97
2023-05-14T07:53:20.601Z,98229.19
2023-05-14T07:55:48.832Z,98209.63
2023-05-14T07:58:18.148Z,98231.09
2023-05-14T08:00:44.912Z,98180.75
2023-05-14T08:03:12.171Z,98225.81
2023-05-14T08:05:38.986Z,98191.97
2023-05-14T08:08:05.797Z,98191.53
2023-05-14T08:10:35.000Z,98185.91
2023-05-14T08:13:01.922Z,98211.03
2023-05-14T08:15:33.500Z,98191.84
2023-05-14T08:18:03.670Z,98225.78
2023-05-14T08:20:31.176Z,98148.63
2023-05-14T08:22:58.279Z,98218.22
2023-05-14T08:25:27.299Z,98208.81
2023-05-14T08:27:54.252Z,98228.88
2023-05-14T08:30:22.190Z,98173.81
2023-05-14T08:32:49.023Z,98176.03
2023-05-14T08:35:16.275Z,98189.63
2023-05-14T08:37:43.062Z,98164.31
2023-05-14T08:40:10.192Z,98198.88
2023-05-14T08:42:40.766Z,98228.63
2023-05-14T08:45:17.136Z,98151.72
2023-05-14T08:47:49.352Z,98172.72
2023-05-14T08:50:16.718Z,98116.88
2023-05-14T08:52:44.069Z,98172.03
2023-05-14T08:55:12.312Z,98152.75
2023-05-14T08:57:39.424Z,98146.81
2023-05-14T09:00:11.907Z,98109.84
2023-05-14T09:02:40.882Z,98183.31
2023-05-14T09:05:09.274Z,98199.66
2023-05-14T09:07:36.621Z,98155.00
2023-05-14T09:10:04.507Z,98091.25
2023-05-14T09:12:31.536Z,98075.44
2023-05-14T09:14:58.276Z,98148.44
2023-05-14T09:17:27.399Z,98170.50
2023-05-14T09:19:54.346Z,98137.03
2023-05-14T09:22:21.115Z,98139.41
2023-05-14T09:25:02.562Z,98185.41
2023-05-14T09:27:30.975Z,98141.28
2023-05-14T09:30:09.195Z,98181.69
2023-05-14T09:32:38.307Z,98164.47
2023-05-14T09:35:12.640Z,98198.38
2023-05-14T09:37:42.955Z,98211.56
2023-05-14T09:40:14.786Z,98154.06
2023-05-14T09:42:42.359Z,98138.38
2023-05-14T09:45:10.230Z,98125.31
2023-05-14T09:47:39.480Z,98181.69
2023-05-14T09:50:07.853Z,98149.88
2023-05-14T09:52:38.580Z,98145.75
2023-05-14T09:55:06.554Z,98098.31
2023-05-14T09:57:34.753Z,98137.84
2023-05-14T10:00:09.437Z,98180.53
2023-05-14T10:02:38.298Z,98069.81
2023-05-14T10:05:07.623Z,98141.34
2023-05-14T10:07:42.835Z,98164.31
2023-05-14T10:10:15.543Z,98159.28
2023-05-14T10:12:46.440Z,98087.72
2023-05-14T10:15:19.464Z,98134.34
2023-05-14T10:17:50.160Z,98141.47
2023-05-14T10:20:17.745Z,98148.00
2023-05-14T10:22:44.656Z,98080.72
2023-05-14T10:25:12.119Z,98126.13
2023-05-14T10:27:39.814Z,98134.72
2023-05-14T10:30:12.389Z,98141.94
2023-05-14T10:32:41.849Z,98096.91
2023-05-14T10:35:25.517Z,98113.94
2023-05-14T10:37:52.869Z,98130.03
2023-05-14T10:40:23.590Z,98100.97
2023-05-14T10:42:50.693Z,98084.91
2023-05-14T10:45:18.061Z,98026.94
2023-05-14T10:47:47.285Z,98106.97
2023-05-14T10:50:16.166Z,98082.16
2023-05-14T10:52:44.409Z,98063.94
2023-05-14T10:55:16.188Z,98105.09
2023-05-14T10:57:45.142Z,98096.84
2023-05-14T11:00:18.091Z,98115.75
2023-05-14T11:02:46.372Z,98102.13
2023-05-14T11:05:17.270Z,98105.09
2023-05-14T11:07:45.376Z,98110.50
2023-05-14T11:10:15.200Z,98097.41
2023-05-14T11:12:44.436Z,98089.19
2023-05-14T11:15:13.317Z,98100.38
2023-05-14T11:17:44.209Z,98076.81
2023-05-14T11:20:17.801Z,98105.91
2023-05-14T11:22:46.754Z,98058.66
2023-05-14T11:25:17.901Z,98081.88
2023-05-14T11:27:47.241Z,98089.78
2023-05-14T11:30:18.997Z,98042.94
2023-05-14T11:32:47.611Z,98039.75
2023-05-14T11:35:18.262Z,98052.94
2023-05-14T11:37:53.952Z,98075.84
2023-05-14T11:40:21.212Z,98056.66
2023-05-14T11:42:53.782Z,98076.09
2023-05-14T11:45:30.094Z,98065.03
2023-05-14T11:47:56.924Z,98010.34
2023-05-14T11:50:23.870Z,98058.03
2023-05-14T11:52:51.016Z,98024.06
2023-05-14T11:55:21.024Z,98012.41
2023-05-14T11:57:48.882Z,98029.94
2023-05-14T12:00:22.239Z,98013.13
2023-05-14T12:02:49.807Z,98039.13
2023-05-14T12:05:16.811Z,98038.53
2023-05-14T12:07:47.372Z,98034.63
2023-05-14T12:10:14.016Z,98014.00
2023-05-14T12:12:40.863Z,98035.19
2023-05-14T12:15:14.103Z,98016.09
2023-05-14T12:17:49.295Z,98044.69
2023-05-14T12:20:15.955Z,97992.13
2023-05-14T12:22:42.638Z,98060.94
2023-05-14T12:25:13.763Z,98051.34
2023-05-14T12:27:41.422Z,98051.06
2023-05-14T12:32:42.770Z,98027.16
2023-05-14T12:35:10.125Z,98038.41
2023-05-14T12:37:39.168Z,98043.84
2023-05-14T12:40:20.998Z,98042.28
2023-05-14T12:42:50.328Z,98029.41
2023-05-14T12:45:17.776Z,98027.34
2023-05-14T12:47:46.345Z,98029.50
2023-05-14T12:50:27.508Z,98045.66
2023-05-14T12:52:55.331Z,97986.09
2023-05-14T12:55:22.409Z,98001.31
2023-05-14T12:57:52.075Z,97994.28
2023-05-14T13:00:19.676Z,97996.59
2023-05-14T13:02:46.719Z,97970.50
2023-05-14T13:05:14.427Z,98018.28
2023-05-14T13:07:42.751Z,97984.06
2023-05-14T13:10:10.360Z,97995.47
2023-05-14T13:12:38.888Z,98001.44
2023-05-14T13:15:06.841Z,98015.19
2023-05-14T13:17:33.912Z,97975.69
2023-05-14T13:20:00.864Z,97990.84
2023-05-14T13:22:27.877Z,97973.72
2023-05-14T13:24:54.899Z,97945.69
2023-05-14T13:27:22.001Z,97982.59
2023-05-14T13:29:48.998Z,97957.13
2023-05-14T13:32:15.778Z,97937.81
2023-05-14T13:34:44.011Z,97952.97
2023-05-14T13:37:11.183Z,97955.69
2023-05-14T13:39:39.396Z,97960.47
2023-05-14T13:42:10.735Z,97941.66
2023-05-14T13:44:40.206Z,97915.78
2023-05-14T13:47:07.152Z,97951.97
2023-05-14T13:49:33.881Z,97920.28
2023-05-14T13:52:00.967Z,97969.69
2023-05-14T13:54:27.678Z,97966.66
2023-05-14T13:56:54.348Z,97919.34
2023-05-14T13:59:21.296Z,97897.13
2023-05-14T14:01:51.531Z,97941.66
2023-05-14T14:04:19.961Z,97900.72
2023-05-14T14:06:47.020Z,97921.88
2023-05-14T14:09:16.735Z,97924.44
2023-05-14T14:11:46.358Z,97910.38
2023-05-14T14:14:15.752Z,97949.25
2023-05-14T14:16:43.021Z,97921.25
2023-05-14T14:19:19.440Z,97930.50
2023-05-14T14:21:46.598Z,97908.63
2023-05-14T14:24:13.783Z,97945.59
2023-05-14T14:26:43.106Z,97913.00
2023-05-14T14:29:10.321Z,97887.81
2023-05-14T14:31:37.543Z,97896.41
2023-05-14T14:34:04.383Z,97893.19
2023-05-14T14:36:31.753Z,97898.97
2023-05-14T14:39:18.982Z,97894.81
2023-05-14T14:41:45.914Z,97874.88
2023-05-14T14:44:12.863Z,97864.78
2023-05-14T14:46:39.612Z,97891.91
2023-05-14T14:49:08.960Z,97872.56
2023-05-14T14:51:36.099Z,97902.78
2023-05-14T14:54:05.462Z,97915.41
2023-05-14T14:56:32.669Z,97913.97
2023-05-14T14:59:01.664Z,97875.91
2023-05-14T15:01:28.606Z,97873.75
2023-05-14T15:03:55.174Z,97873.56
2023-05-14T15:06:21.981Z,97888.59
2023-05-14T15:08:48.881Z,97882.34
2023-05-14T15:11:15.792Z,97893.38
2023-05-14T15:13:43.120Z,97899.91
2023-05-14T15:16:10.093Z,97857.66
2023-05-14T15:18:39.465Z,97837.00
2023-05-14T15:21:06.349Z,97872.44
2023-05-14T15:23:33.282Z,97854.69
2023-05-14T15:26:00.139Z,97839.00
2023-05-14T15:28:27.056Z,97867.53
2023-05-14T15:30:54.446Z,97856.66
2023-05-14T15:33:21.365Z,97840.34
2023-05-14T15:35:48.490Z,97906.03
2023-05-14T15:38:15.599Z,97866.31
2023-05-14T15:40:42.635Z,97856.97
2023-05-14T15:43:09.696Z,97857.34
2023-05-14T15:45:36.639Z,97856.38
2023-05-14T15:48:03.961Z,97843.31
2023-05-14T15:50:31.219Z,97832.59
2023-05-14T15:52:58.387Z,97861.44
2023-05-14T15:55:25.112Z,97841.00
2023-05-14T15:57:54.258Z,97867.94
2023-05-14T16:00:22.768Z,97854.34
2023-05-14T16:02:50.023Z,97889.28
2023-05-14T16:05:19.559Z,97862.09
2023-05-14T16:07:49.886Z,97839.56
2023-05-14T16:10:20.803Z,97847.09
2023-05-14T16:12:53.754Z,97820.53
2023-05-14T16:15:27.123Z,97865.25
2023-05-14T16:17:57.478Z,97831.16
2023-05-14T16:20:35.186Z,97765.03
2023-05-14T16:23:07.767Z,97901.06
2023-05-14T16:25:34.931Z,97906.97
2023-05-14T16:28:02.363Z,97840.56
2023-05-14T16:30:29.542Z,97847.59
2023-05-14T16:32:58.658Z,97792.69
2023-05-14T16:35:25.692Z,97853.59
2023-05-14T16:37:52.393Z,97864.88
2023-05-14T16:40:19.730Z,97794.88
2023-05-14T16:42:49.136Z,97842.25
2023-05-14T16:45:16.653Z,97893.47
2023-05-14T16:47:43.342Z,97823.53
2023-05-14T16:50:10.385Z,97831.69
2023-05-14T16:52:36.994Z,97847.00
2023-05-14T16:55:04.175Z,97847.59
2023-05-14T16:57:30.900Z,97857.38
2023-05-14T16:59:58.266Z,97855.56
2023-05-14T17:02:27.705Z,97868.22
2023-05-14T17:05:15.996Z,97875.56
2023-05-14T17:08:05.123Z,97867.59
2023-05-14T17:11:43.536Z,97875.47
2023-05-14T17:14:32.218Z,97876.28
2023-05-14T17:17:36.482Z,97871.66
2023-05-14T17:20:52.710Z,97849.22
2023-05-14T17:23:42.613Z,97873.34
2023-05-14T17:26:38.730Z,97876.09
2023-05-14T17:29:30.249Z,97883.50
2023-05-14T17:32:20.946Z,97852.75
2023-05-14T17:35:11.610Z,97850.31
2023-05-14T17:37:59.952Z,97880.22
2023-05-14T17:40:48.062Z,97867.56
2023-05-14T17:43:35.481Z,97884.75
2023-05-14T17:46:23.518Z,97865.22
2023-05-14T17:49:11.881Z,97879.69
2023-05-14T17:51:59.031Z,97851.16
2023-05-14T17:54:46.072Z,97873.97
2023-05-14T17:57:33.048Z,97847.75
2023-05-14T18:00:20.307Z,97866.19
2023-05-14T18:03:07.882Z,97862.16
2023-05-14T18:05:54.991Z,97858.78
2023-05-14T18:08:42.525Z,97840.56
2023-05-14T18:11:33.769Z,97871.22
2023-05-14T18:14:20.855Z,97875.88
2023-05-14T18:17:08.000Z,97860.53
2023-05-14T18:19:54.936Z,97892.44
2023-05-14T18:22:44.891Z,97871.78
2023-05-14T18:25:31.830Z,97857.66
2023-05-14T18:28:19.018Z,97860.41
2023-05-14T18:31:06.266Z,97873.44
2023-05-14T18:33:53.419Z,97865.81
2023-05-14T18:36:40.982Z,97853.44
2023-05-14T18:39:28.087Z,97885.88
2023-05-14T18:42:16.517Z,97888.28
2023-05-14T18:45:04.524Z,97901.34
2023-05-14T18:47:52.074Z,97873.88
2023-05-14T18:50:39.606Z,97917.53
2023-05-14T18:53:27.250Z,97926.81
2023-05-14T18:56:14.390Z,97894.13
2023-05-14T18:59:01.300Z,97895.31
2023-05-14T19:01:48.495Z,97886.59
2023-05-14T19:04:47.847Z,97919.16
2023-05-14T19:07:38.962Z,97919.69
2023-05-14T19:10:25.870Z,97896.88
2023-05-14T19:13:13.135Z,97910.56
2023-05-14T19:16:00.750Z,97910.97
2023-05-14T19:18:48.032Z,97894.63
2023-05-14T19:21:35.056Z,97890.59
2023-05-14T19:24:22.158Z,97915.38
2023-05-14T19:27:09.208Z,97910.59
2023-05-14T19:30:00.965Z,97934.16
2023-05-14T19:32:48.163Z,97935.03
2023-05-14T19:35:39.703Z,97933.59
2023-05-14T19:38:27.990Z,97942.63
